createdAt,value
2022-10-23T00:01:45.440Z,99.90
2022-10-23T00:04:16.771Z,99.90
2022-10-23T00:06:46.783Z,99.90
2022-10-23T00:09:21.080Z,99.90
2022-10-23T00:11:50.769Z,99.90
2022-10-23T00:14:21.305Z,99.90
2022-10-23T00:16:49.480Z,99.90
2022-10-23T00:19:18.110Z,99.90
2022-10-23T00:21:47.697Z,99.90
2022-10-23T00:24:15.949Z,99.90
2022-10-23T00:26:44.195Z,99.90
2022-10-23T00:29:12.913Z,99.90
2022-10-23T00:31:41.228Z,99.90
2022-10-23T00:34:12.382Z,99.90
2022-10-23T00:36:40.854Z,99.90
2022-10-23T00:39:10.332Z,99.90
2022-10-23T00:41:38.685Z,99.90
2022-10-23T00:44:12.282Z,99.90
2022-10-23T00:46:40.799Z,99.90
2022-10-23T00:51:42.137Z,99.90
2022-10-23T00:54:23.326Z,99.90
2022-10-23T00:56:53.722Z,99.90
2022-10-23T00:59:22.039Z,99.90
2022-10-23T01:01:50.124Z,99.90
2022-10-23T01:04:18.607Z,99.90
2022-10-23T01:06:55.208Z,99.90
2022-10-23T01:09:32.712Z,99.90
2022-10-23T01:12:08.476Z,99.90
2022-10-23T01:14:43.485Z,99.90
2022-10-23T01:17:16.579Z,99.90
2022-10-23T01:19:52.179Z,99.90
2022-10-23T01:22:34.232Z,99.90
2022-10-23T01:25:12.554Z,99.90
2022-10-23T01:27:46.584Z,99.90
2022-10-23T01:30:18.043Z,99.90
2022-10-23T01:32:52.714Z,99.90
2022-10-23T01:35:23.782Z,99.90
2022-10-23T01:37:56.020Z,99.90
2022-10-23T01:40:34.136Z,99.90
2022-10-23T01:43:15.352Z,99.90
2022-10-23T01:45:46.856Z,99.90
2022-10-23T01:48:21.515Z,99.90
2022-10-23T01:50:51.290Z,99.90
2022-10-23T01:53:20.961Z,99.90
2022-10-23T01:55:51.012Z,99.90
2022-10-23T01:58:22.163Z,99.90
2022-10-23T02:00:52.758Z,99.90
2022-10-23T02:03:21.961Z,99.90
2022-10-23T02:05:52.651Z,99.90
2022-10-23T02:08:21.220Z,99.90
2022-10-23T02:10:52.979Z,99.90
2022-10-23T02:13:28.970Z,99.90
2022-10-23T02:16:04.692Z,99.90
2022-10-23T02:18:45.995Z,99.90
2022-10-23T02:21:18.727Z,99.90
2022-10-23T02:23:55.248Z,99.90
2022-10-23T02:26:28.768Z,99.90
2022-10-23T02:29:02.986Z,99.90
2022-10-23T02:31:31.424Z,99.90
2022-10-23T02:33:59.453Z,99.90
2022-10-23T02:36:27.655Z,99.90
2022-10-23T02:38:55.752Z,99.90
2022-10-23T02:41:40.493Z,99.90
2022-10-23T02:44:24.610Z,99.90
2022-10-23T02:47:01.064Z,99.90
2022-10-23T02:49:36.760Z,99.90
2022-10-23T02:52:13.724Z,99.90
2022-10-23T02:54:55.729Z,99.90
2022-10-23T02:57:31.034Z,99.90
2022-10-23T03:00:10.956Z,99.90
2022-10-23T03:02:41.958Z,99.90
2022-10-23T03:05:15.823Z,99.90
2022-10-23T03:07:44.900Z,99.90
2022-10-23T03:10:13.645Z,99.90
2022-10-23T03:12:42.581Z,99.90
2022-10-23T03:15:13.113Z,99.90
2022-10-23T03:17:44.157Z,99.90
2022-10-23T03:20:13.021Z,99.90
2022-10-23T03:22:41.966Z,99.90
2022-10-23T03:25:11.513Z,99.90
2022-10-23T03:27:39.583Z,99.90
2022-10-23T03:30:09.052Z,99.90
2022-10-23T03:32:38.607Z,99.90
2022-10-23T03:35:07.417Z,99.90
2022-10-23T03:37:35.464Z,99.90
2022-10-23T03:40:03.667Z,99.90
2022-10-23T03:42:31.735Z,99.90
2022-10-23T03:44:59.748Z,99.90
2022-10-23T03:47:27.732Z,99.90
2022-10-23T03:49:57.072Z,99.90
2022-10-23T03:54:58.023Z,99.90
2022-10-23T03:57:26.567Z,99.90
2022-10-23T03:59:54.637Z,99.90
2022-10-23T04:02:22.737Z,99.90
2022-10-23T04:04:50.922Z,99.90
2022-10-23T04:07:23.014Z,99.90
2022-10-23T04:09:51.117Z,99.90
2022-10-23T04:12:19.432Z,99.90
2022-10-23T04:14:47.538Z,99.90
2022-10-23T04:17:15.822Z,99.90
2022-10-23T04:19:43.886Z,99.90
2022-10-23T04:22:11.940Z,99.90
2022-10-23T04:24:45.302Z,99.90
2022-10-23T04:27:13.863Z,99.90
2022-10-23T04:29:41.958Z,99.90
2022-10-23T04:32:09.933Z,99.90
2022-10-23T04:34:38.111Z,99.90
2022-10-23T04:37:09.852Z,99.90
2022-10-23T04:39:37.892Z,99.90
2022-10-23T04:42:07.500Z,99.90
2022-10-23T04:44:35.684Z,99.90
2022-10-23T04:47:03.942Z,99.90
2022-10-23T04:49:32.000Z,99.90
2022-10-23T04:51:59.991Z,99.90
2022-10-23T04:54:28.005Z,99.90
2022-10-23T04:56:56.028Z,99.90
2022-10-23T04:59:25.361Z,99.90
2022-10-23T05:01:53.799Z,99.90
2022-10-23T05:04:21.867Z,99.90
2022-10-23T05:06:49.893Z,99.90
2022-10-23T05:09:18.068Z,99.90
2022-10-23T05:11:46.039Z,99.90
2022-10-23T05:14:15.575Z,99.90
2022-10-23T05:16:53.831Z,99.90
2022-10-23T05:19:27.769Z,99.90
2022-10-23T05:21:57.315Z,99.90
2022-10-23T05:24:26.600Z,99.90
2022-10-23T05:26:54.784Z,99.90
2022-10-23T05:29:24.399Z,99.90
2022-10-23T05:31:56.956Z,99.90
2022-10-23T05:34:27.358Z,99.90
2022-10-23T05:36:56.060Z,99.90
2022-10-23T05:39:24.315Z,99.90
2022-10-23T05:41:52.617Z,99.90
2022-10-23T05:44:21.168Z,99.90
2022-10-23T05:47:19.352Z,99.90
2022-10-23T05:49:47.450Z,99.90
2022-10-23T05:52:22.381Z,99.90
2022-10-23T05:54:52.598Z,99.90
2022-10-23T05:57:20.812Z,99.90
2022-10-23T05:59:49.117Z,99.90
2022-10-23T06:02:18.730Z,99.90
2022-10-23T06:04:46.885Z,99.90
2022-10-23T06:07:24.661Z,99.90
2022-10-23T06:09:54.308Z,99.90
2022-10-23T06:12:22.497Z,99.90
2022-10-23T06:14:51.863Z,99.90
2022-10-23T06:17:21.605Z,99.90
2022-10-23T06:19:49.660Z,99.90
2022-10-23T06:22:17.709Z,99.90
2022-10-23T06:24:45.759Z,99.90
2022-10-23T06:27:13.956Z,99.90
2022-10-23T06:29:44.465Z,99.90
2022-10-23T06:32:14.962Z,99.90
2022-10-23T06:34:47.365Z,99.90
2022-10-23T06:37:15.557Z,99.90
2022-10-23T06:39:43.626Z,99.90
2022-10-23T06:42:12.123Z,99.90
2022-10-23T06:44:40.314Z,99.90
2022-10-23T06:47:10.489Z,99.90
2022-10-23T06:49:40.962Z,99.90
2022-10-23T06:52:18.426Z,99.90
2022-10-23T06:54:57.492Z,99.90
2022-10-23T06:57:25.649Z,99.90
2022-10-23T06:59:56.818Z,99.90
2022-10-23T07:02:24.950Z,99.90
2022-10-23T07:04:52.981Z,99.90
2022-10-23T07:07:25.832Z,99.90
2022-10-23T07:09:54.041Z,99.90
2022-10-23T07:12:22.411Z,99.90
2022-10-23T07:14:57.961Z,99.90
2022-10-23T07:17:27.355Z,99.90
2022-10-23T07:19:55.357Z,99.90
2022-10-23T07:22:25.140Z,99.90
2022-10-23T07:24:53.192Z,99.90
2022-10-23T07:27:21.632Z,99.90
2022-10-23T07:29:51.847Z,99.90
2022-10-23T07:32:20.684Z,99.90
2022-10-23T07:34:49.501Z,99.90
2022-10-23T07:37:19.848Z,99.90
2022-10-23T07:39:49.548Z,99.90
2022-10-23T07:42:17.787Z,99.90
2022-10-23T07:44:45.868Z,99.90
2022-10-23T07:47:14.483Z,99.90
2022-10-23T07:49:42.873Z,99.90
2022-10-23T07:52:12.267Z,99.90
2022-10-23T07:54:42.736Z,99.90
2022-10-23T07:57:13.044Z,99.90
2022-10-23T07:59:41.308Z,99.90
2022-10-23T08:02:12.719Z,99.90
2022-10-23T08:04:40.775Z,99.90
2022-10-23T08:07:08.919Z,99.90
2022-10-23T08:09:38.035Z,99.90
2022-10-23T08:12:06.585Z,99.90
2022-10-23T08:14:36.069Z,99.90
2022-10-23T08:17:09.580Z,99.90
2022-10-23T08:19:37.967Z,99.90
2022-10-23T08:22:09.272Z,99.90
2022-10-23T08:24:37.284Z,99.90
2022-10-23T08:27:05.395Z,99.90
2022-10-23T08:29:35.062Z,99.90
2022-10-23T08:32:03.121Z,99.90
2022-10-23T08:34:31.289Z,99.90
2022-10-23T08:36:59.752Z,99.90
2022-10-23T08:39:27.880Z,99.90
2022-10-23T08:41:56.009Z,99.90
2022-10-23T08:44:29.240Z,99.90
2022-10-23T08:47:08.362Z,99.90
2022-10-23T08:49:44.245Z,99.90
2022-10-23T08:52:21.560Z,99.90
2022-10-23T08:55:06.055Z,99.90
2022-10-23T08:57:41.442Z,99.90
2022-10-23T09:00:16.604Z,99.90
2022-10-23T09:02:47.767Z,99.90
2022-10-23T09:05:20.556Z,99.90
2022-10-23T09:08:13.863Z,99.90
2022-10-23T09:11:07.406Z,99.90
2022-10-23T09:14:00.007Z,99.90
2022-10-23T09:16:44.316Z,99.90
2022-10-23T09:19:18.274Z,99.90
2022-10-23T09:21:50.061Z,99.90
2022-10-23T09:24:20.333Z,99.20
2022-10-23T09:26:50.678Z,98.70
2022-10-23T09:29:25.346Z,98.20
2022-10-23T09:31:58.552Z,98.10
2022-10-23T09:34:29.732Z,98.10
2022-10-23T09:37:00.845Z,97.80
2022-10-23T09:39:31.368Z,97.40
2022-10-23T09:42:02.468Z,97.30
2022-10-23T09:44:33.261Z,97.70
2022-10-23T09:47:11.153Z,97.70
2022-10-23T09:49:47.307Z,97.90
2022-10-23T09:52:25.745Z,98.10
2022-10-23T09:54:57.125Z,98.50
2022-10-23T09:57:30.091Z,98.50
2022-10-23T10:00:01.599Z,98.50
2022-10-23T10:02:32.404Z,99.00
2022-10-23T10:05:13.533Z,98.90
2022-10-23T10:07:43.094Z,98.70
2022-10-23T10:10:16.750Z,98.70
2022-10-23T10:12:51.498Z,98.30
2022-10-23T10:15:27.252Z,98.70
2022-10-23T10:18:09.275Z,98.60
2022-10-23T10:20:56.427Z,98.50
2022-10-23T10:23:33.504Z,98.50
2022-10-23T10:26:09.067Z,98.90
2022-10-23T10:28:54.800Z,98.60
2022-10-23T10:31:34.313Z,97.70
2022-10-23T10:34:11.459Z,98.10
2022-10-23T10:36:50.637Z,98.20
2022-10-23T10:39:28.892Z,97.70
2022-10-23T10:42:23.725Z,97.20
2022-10-23T10:45:01.636Z,97.30
2022-10-23T10:47:38.876Z,97.30
2022-10-23T10:50:18.219Z,96.70
2022-10-23T10:52:56.724Z,96.70
2022-10-23T10:55:31.614Z,96.80
2022-10-23T10:58:05.936Z,96.30
2022-10-23T11:00:35.763Z,96.60
2022-10-23T11:03:12.478Z,96.50
2022-10-23T11:05:45.415Z,95.50
2022-10-23T11:08:20.593Z,95.60
2022-10-23T11:10:53.020Z,95.80
2022-10-23T11:13:28.095Z,95.60
2022-10-23T11:16:00.924Z,95.80
2022-10-23T11:18:32.059Z,95.90
2022-10-23T11:21:08.732Z,96.20
2022-10-23T11:24:03.119Z,96.50
2022-10-23T11:26:42.776Z,96.60
2022-10-23T11:29:45.606Z,96.30
2022-10-23T11:32:28.103Z,96.40
2022-10-23T11:35:15.469Z,96.50
2022-10-23T11:37:44.274Z,96.80
2022-10-23T11:40:24.818Z,96.60
2022-10-23T11:42:53.331Z,96.80
2022-10-23T11:45:33.795Z,96.50
2022-10-23T11:48:04.221Z,96.80
2022-10-23T11:50:34.210Z,97.20
2022-10-23T11:53:14.300Z,96.90
2022-10-23T11:55:58.973Z,97.00
2022-10-23T11:58:31.865Z,96.80
2022-10-23T12:01:05.254Z,96.60
2022-10-23T12:03:48.612Z,96.80
2022-10-23T12:06:23.618Z,96.70
2022-10-23T12:08:55.005Z,96.80
2022-10-23T12:11:49.475Z,97.00
2022-10-23T12:14:29.215Z,96.80
2022-10-23T12:16:57.603Z,96.80
2022-10-23T12:19:28.814Z,96.90
2022-10-23T12:22:00.409Z,96.90
2022-10-23T12:24:42.416Z,97.20
2022-10-23T12:27:23.276Z,97.40
2022-10-23T12:30:15.456Z,97.40
2022-10-23T12:33:04.279Z,97.30
2022-10-23T12:35:52.931Z,97.50
2022-10-23T12:38:23.943Z,97.50
2022-10-23T12:40:53.775Z,97.20
2022-10-23T12:43:27.316Z,97.40
2022-10-23T12:45:57.287Z,97.40
2022-10-23T12:48:26.247Z,97.60
2022-10-23T12:50:56.597Z,97.70
2022-10-23T12:53:26.082Z,97.70
2022-10-23T12:58:35.451Z,97.20
2022-10-23T13:01:05.542Z,97.20
2022-10-23T13:03:35.150Z,97.60
2022-10-23T13:06:04.057Z,97.20
2022-10-23T13:08:43.818Z,97.60
2022-10-23T13:11:16.637Z,97.30
2022-10-23T13:13:47.060Z,97.40
2022-10-23T13:16:16.163Z,97.20
2022-10-23T13:18:44.533Z,97.00
2022-10-23T13:21:19.022Z,97.00
2022-10-23T13:23:47.493Z,97.10
2022-10-23T13:26:33.431Z,96.80
2022-10-23T13:29:08.790Z,97.10
2022-10-23T13:31:37.864Z,97.40
2022-10-23T13:34:19.970Z,97.30
2022-10-23T13:36:55.136Z,97.20
2022-10-23T13:39:28.535Z,97.10
2022-10-23T13:41:57.731Z,97.40
2022-10-23T13:44:27.177Z,97.20
2022-10-23T13:46:55.291Z,97.60
2022-10-23T13:49:23.289Z,97.80
2022-10-23T13:51:53.931Z,97.90
2022-10-23T13:54:23.598Z,98.00
2022-10-23T13:56:52.568Z,97.80
2022-10-23T13:59:20.790Z,98.20
2022-10-23T14:01:51.773Z,97.90
2022-10-23T14:04:20.627Z,98.00
2022-10-23T14:06:48.995Z,98.10
2022-10-23T14:09:19.378Z,97.90
2022-10-23T14:11:47.751Z,98.20
2022-10-23T14:14:16.502Z,98.00
2022-10-23T14:16:45.640Z,98.10
2022-10-23T14:19:15.006Z,98.30
2022-10-23T14:21:43.004Z,98.60
2022-10-23T14:24:10.941Z,98.90
2022-10-23T14:26:39.135Z,98.80
2022-10-23T14:29:09.908Z,98.70
2022-10-23T14:31:39.535Z,98.60
2022-10-23T14:34:07.481Z,98.50
2022-10-23T14:36:49.363Z,98.40
2022-10-23T14:39:19.097Z,99.10
2022-10-23T14:41:47.075Z,99.10
2022-10-23T14:44:15.309Z,98.90
2022-10-23T14:46:43.447Z,98.80
2022-10-23T14:49:11.512Z,98.80
2022-10-23T14:51:40.892Z,98.80
2022-10-23T14:54:09.247Z,98.90
2022-10-23T14:56:39.946Z,98.70
2022-10-23T14:59:10.215Z,98.70
2022-10-23T15:01:45.063Z,98.90
2022-10-23T15:04:15.412Z,98.80
2022-10-23T15:06:46.667Z,98.90
2022-10-23T15:09:15.123Z,99.20
2022-10-23T15:11:43.653Z,98.90
2022-10-23T15:14:11.657Z,98.80
2022-10-23T15:16:41.779Z,98.80
2022-10-23T15:19:15.168Z,99.00
2022-10-23T15:21:48.631Z,99.00
2022-10-23T15:24:17.379Z,99.40
2022-10-23T15:26:47.224Z,99.30
2022-10-23T15:29:16.079Z,99.30
2022-10-23T15:31:49.846Z,99.50
2022-10-23T15:34:20.202Z,99.60
2022-10-23T15:36:50.242Z,99.80
2022-10-23T15:39:20.766Z,99.90
2022-10-23T15:41:51.056Z,99.90
2022-10-23T15:44:20.592Z,99.90
2022-10-23T15:46:49.551Z,99.90
2022-10-23T15:49:17.947Z,99.90
2022-10-23T15:51:46.924Z,99.90
2022-10-23T15:54:22.230Z,99.90
2022-10-23T15:56:53.087Z,99.90
2022-10-23T15:59:24.002Z,99.90
2022-10-23T16:01:52.686Z,99.90
2022-10-23T16:04:20.844Z,99.90
2022-10-23T16:06:49.495Z,99.90
2022-10-23T16:09:18.889Z,99.90
2022-10-23T16:11:47.004Z,99.90
2022-10-23T16:14:17.710Z,99.90
2022-10-23T16:16:46.000Z,99.90
2022-10-23T16:19:14.183Z,99.90
2022-10-23T16:21:42.890Z,99.90
2022-10-23T16:24:11.688Z,99.90
2022-10-23T16:26:41.188Z,99.90
2022-10-23T16:29:10.589Z,99.90
2022-10-23T16:31:38.847Z,99.90
2022-10-23T16:34:07.330Z,99.90
2022-10-23T16:36:38.896Z,99.90
2022-10-23T16:39:07.654Z,99.90
2022-10-23T16:41:35.829Z,99.90
2022-10-23T16:44:05.287Z,99.90
2022-10-23T16:46:34.097Z,99.90
2022-10-23T16:49:03.913Z,99.90
2022-10-23T16:51:32.392Z,99.90
2022-10-23T16:54:00.466Z,99.90
2022-10-23T16:56:30.577Z,99.90
2022-10-23T17:01:34.502Z,99.90
2022-10-23T17:04:02.773Z,99.90
2022-10-23T17:06:33.426Z,99.90
2022-10-23T17:09:03.706Z,99.90
2022-10-23T17:11:33.292Z,99.90
2022-10-23T17:14:04.358Z,99.90
2022-10-23T17:16:37.009Z,99.90
2022-10-23T17:19:15.980Z,99.90
2022-10-23T17:21:49.200Z,99.90
2022-10-23T17:24:18.146Z,99.90
2022-10-23T17:26:46.640Z,99.90
2022-10-23T17:29:15.631Z,99.90
2022-10-23T17:31:47.203Z,99.90
2022-10-23T17:34:18.700Z,99.90
2022-10-23T17:36:50.394Z,99.90
2022-10-23T17:39:21.001Z,99.90
2022-10-23T17:41:49.621Z,99.90
2022-10-23T17:44:18.242Z,99.90
2022-10-23T17:46:52.321Z,99.90
2022-10-23T17:49:20.717Z,99.90
2022-10-23T17:51:52.979Z,99.90
2022-10-23T17:54:21.246Z,99.90
2022-10-23T17:56:50.443Z,99.90
2022-10-23T17:59:19.971Z,99.90
2022-10-23T18:01:50.083Z,99.90
2022-10-23T18:04:19.335Z,99.90
2022-10-23T18:06:49.518Z,99.90
2022-10-23T18:09:17.850Z,99.90
2022-10-23T18:11:48.575Z,99.90
2022-10-23T18:14:17.986Z,99.90
2022-10-23T18:16:47.314Z,99.90
2022-10-23T18:19:18.546Z,99.90
2022-10-23T18:21:47.358Z,99.90
2022-10-23T18:24:16.412Z,99.90
2022-10-23T18:26:46.197Z,99.90
2022-10-23T18:29:14.827Z,99.90
2022-10-23T18:31:43.940Z,99.90
2022-10-23T18:34:17.445Z,99.90
2022-10-23T18:36:46.322Z,99.90
2022-10-23T18:39:16.674Z,99.90
2022-10-23T18:41:46.488Z,99.90
2022-10-23T18:44:17.635Z,99.90
2022-10-23T18:46:45.969Z,99.90
2022-10-23T18:49:15.516Z,99.90
2022-10-23T18:51:45.906Z,99.90
2022-10-23T18:54:16.107Z,99.90
2022-10-23T18:56:44.899Z,99.90
2022-10-23T18:59:17.340Z,99.90
2022-10-23T19:01:46.155Z,99.90
2022-10-23T19:04:16.192Z,99.90
2022-10-23T19:06:46.428Z,99.90
2022-10-23T19:09:15.526Z,99.90
2022-10-23T19:11:45.179Z,99.90
2022-10-23T19:14:13.452Z,99.90
2022-10-23T19:16:45.435Z,99.90
2022-10-23T19:19:19.077Z,99.90
2022-10-23T19:21:49.828Z,99.90
2022-10-23T19:24:22.592Z,99.90
2022-10-23T19:26:51.638Z,99.90
2022-10-23T19:29:24.724Z,99.90
2022-10-23T19:31:53.317Z,99.90
2022-10-23T19:34:24.649Z,99.90
2022-10-23T19:36:55.590Z,99.90
2022-10-23T19:39:25.754Z,99.90
2022-10-23T19:41:54.135Z,99.90
2022-10-23T19:44:22.756Z,99.90
2022-10-23T19:46:50.800Z,99.90
2022-10-23T19:49:19.467Z,99.90
2022-10-23T19:51:51.240Z,99.90
2022-10-23T19:54:21.405Z,99.90
2022-10-23T19:56:50.336Z,99.90
2022-10-23T19:59:18.448Z,99.90
2022-10-23T20:01:49.025Z,99.90
2022-10-23T20:04:18.142Z,99.90
2022-10-23T20:06:46.278Z,99.90
2022-10-23T20:09:15.556Z,99.90
2022-10-23T20:11:45.486Z,99.90
2022-10-23T20:14:14.187Z,99.90
2022-10-23T20:16:44.703Z,99.90
2022-10-23T20:19:14.804Z,99.90
2022-10-23T20:21:44.982Z,99.90
2022-10-23T20:24:14.993Z,99.90
2022-10-23T20:26:46.369Z,99.90
2022-10-23T20:29:15.020Z,99.90
2022-10-23T20:31:43.924Z,99.90
2022-10-23T20:34:13.350Z,99.90
2022-10-23T20:36:46.440Z,99.90
2022-10-23T20:39:17.440Z,99.90
2022-10-23T20:41:47.000Z,99.90
2022-10-23T20:46:45.868Z,99.90
2022-10-23T20:49:14.857Z,99.90
2022-10-23T20:51:45.193Z,99.90
2022-10-23T20:54:13.185Z,99.90
2022-10-23T20:56:41.343Z,99.90
2022-10-23T20:59:13.298Z,99.90
2022-10-23T21:01:42.526Z,99.90
2022-10-23T21:04:13.971Z,99.90
2022-10-23T21:06:57.803Z,99.90
2022-10-23T21:09:31.400Z,99.90
2022-10-23T21:12:04.607Z,99.90
2022-10-23T21:14:34.091Z,99.90
2022-10-23T21:17:02.109Z,99.90
2022-10-23T21:19:30.143Z,99.90
2022-10-23T21:21:58.342Z,99.90
2022-10-23T21:24:26.376Z,99.90
2022-10-23T21:26:54.478Z,99.90
2022-10-23T21:29:22.607Z,99.90
2022-10-23T21:31:57.070Z,99.90
2022-10-23T21:34:25.747Z,99.90
2022-10-23T21:37:11.950Z,99.90
2022-10-23T21:39:41.455Z,99.90
2022-10-23T21:42:09.578Z,99.90
2022-10-23T21:44:37.663Z,99.90
2022-10-23T21:47:07.083Z,99.90
2022-10-23T21:49:35.060Z,99.90
2022-10-23T21:52:03.186Z,99.90
2022-10-23T21:54:31.173Z,99.90
2022-10-23T21:56:59.218Z,99.90
2022-10-23T21:59:31.517Z,99.90
2022-10-23T22:02:01.366Z,99.90
2022-10-23T22:04:30.844Z,99.90
2022-10-23T22:06:58.854Z,99.90
2022-10-23T22:09:26.904Z,99.90
2022-10-23T22:11:55.948Z,99.90
2022-10-23T22:14:24.212Z,99.90
2022-10-23T22:16:52.429Z,99.90
2022-10-23T22:19:21.845Z,99.90
2022-10-23T22:21:52.696Z,99.90
2022-10-23T22:24:21.003Z,99.90
2022-10-23T22:26:57.815Z,99.90
2022-10-23T22:29:27.425Z,99.90
2022-10-23T22:31:55.494Z,99.90
2022-10-23T22:34:41.140Z,99.90
2022-10-23T22:37:15.082Z,99.90
2022-10-23T22:39:43.451Z,99.90
2022-10-23T22:42:11.422Z,99.90
2022-10-23T22:44:39.799Z,99.90
2022-10-23T22:47:08.921Z,99.90
2022-10-23T22:49:38.321Z,99.90
2022-10-23T22:52:06.556Z,99.90
2022-10-23T22:54:36.078Z,99.90
2022-10-23T22:57:04.234Z,99.90
2022-10-23T22:59:32.294Z,99.90
2022-10-23T23:02:00.716Z,99.90
2022-10-23T23:04:44.062Z,99.90
2022-10-23T23:07:13.760Z,99.90
2022-10-23T23:09:46.886Z,99.90
2022-10-23T23:12:15.538Z,99.90
2022-10-23T23:14:43.864Z,99.90
2022-10-23T23:17:14.561Z,99.90
2022-10-23T23:19:42.599Z,99.90
2022-10-23T23:22:10.646Z,99.90
2022-10-23T23:24:38.697Z,99.90
2022-10-23T23:27:08.047Z,99.90
2022-10-23T23:29:36.028Z,99.90
2022-10-23T23:32:06.286Z,99.90
2022-10-23T23:34:34.524Z,99.90
2022-10-23T23:37:02.685Z,99.90
2022-10-23T23:39:30.823Z,99.90
2022-10-23T23:41:58.816Z,99.90
2022-10-23T23:44:28.247Z,99.90
2022-10-23T23:46:56.769Z,99.90
2022-10-23T23:49:24.916Z,99.90
2022-10-23T23:51:53.079Z,99.90
2022-10-23T23:54:21.071Z,99.90
2022-10-23T23:56:49.148Z,99.90
2022-10-23T23:59:17.227Z,99.90
